createdAt,value
2023-01-21T00:00:43.588Z,34.60
2023-01-21T00:01:41.757Z,36.60
2023-01-21T00:02:41.696Z,36.40
2023-01-21T00:03:41.735Z,36.90
2023-01-21T00:04:41.702Z,35.00
2023-01-21T00:05:41.686Z,34.50
2023-01-21T00:06:41.694Z,34.10
2023-01-21T00:07:41.764Z,33.20
2023-01-21T00:08:41.693Z,34.30
2023-01-21T00:09:41.674Z,35.60
2023-01-21T00:10:41.646Z,36.10
2023-01-21T00:11:41.645Z,36.20
2023-01-21T00:12:41.622Z,37.70
2023-01-21T00:13:41.800Z,40.30
2023-01-21T00:14:41.610Z,38.30
2023-01-21T00:15:41.670Z,37.20
2023-01-21T00:16:41.630Z,35.80
2023-01-21T00:17:41.606Z,36.10
2023-01-21T00:18:41.632Z,39.30
2023-01-21T00:19:41.585Z,36.00
2023-01-21T00:20:41.651Z,36.80
2023-01-21T00:21:41.598Z,37.30
2023-01-21T00:22:41.622Z,37.60
2023-01-21T00:23:41.603Z,36.90
2023-01-21T00:24:41.585Z,36.40
2023-01-21T00:25:41.569Z,36.60
2023-01-21T00:26:41.573Z,37.30
2023-01-21T00:27:41.550Z,34.90
2023-01-21T00:28:41.566Z,34.70
2023-01-21T00:29:41.572Z,36.40
2023-01-21T00:30:41.619Z,33.90
2023-01-21T00:31:41.707Z,33.90
2023-01-21T00:32:41.520Z,33.20
2023-01-21T00:33:41.623Z,31.80
2023-01-21T00:34:41.555Z,31.40
2023-01-21T00:35:41.504Z,30.50
2023-01-21T00:36:41.512Z,31.20
2023-01-21T00:37:41.494Z,30.00
2023-01-21T00:38:41.522Z,30.50
2023-01-21T00:39:41.514Z,29.60
2023-01-21T00:40:41.525Z,29.00
2023-01-21T00:41:41.483Z,29.30
2023-01-21T00:42:42.491Z,29.80
2023-01-21T00:43:41.533Z,30.30
2023-01-21T00:44:41.491Z,29.90
2023-01-21T00:45:41.488Z,29.40
2023-01-21T00:46:41.493Z,30.10
2023-01-21T00:47:41.494Z,31.10
2023-01-21T00:48:41.608Z,29.10
2023-01-21T00:49:41.485Z,29.80
2023-01-21T00:50:41.463Z,30.30
2023-01-21T00:51:41.449Z,31.20
2023-01-21T00:52:41.437Z,29.10
2023-01-21T00:53:41.422Z,28.30
2023-01-21T00:54:41.425Z,28.20
2023-01-21T00:55:41.433Z,27.30
2023-01-21T00:56:41.384Z,29.10
2023-01-21T00:57:41.414Z,29.30
2023-01-21T00:58:41.387Z,29.70
2023-01-21T00:59:41.384Z,29.20
2023-01-21T01:00:41.450Z,29.00
2023-01-21T01:01:41.405Z,28.50
2023-01-21T01:02:41.403Z,28.50
2023-01-21T01:03:41.418Z,29.80
2023-01-21T01:04:41.390Z,29.60
2023-01-21T01:05:41.334Z,30.60
2023-01-21T01:06:41.353Z,30.60
2023-01-21T01:07:41.342Z,31.20
2023-01-21T01:08:41.352Z,31.00
2023-01-21T01:09:41.384Z,31.40
2023-01-21T01:10:41.320Z,30.00
2023-01-21T01:11:41.355Z,31.10
2023-01-21T01:12:41.380Z,31.20
2023-01-21T01:13:41.322Z,30.50
2023-01-21T01:14:41.283Z,29.30
2023-01-21T01:15:41.346Z,29.00
2023-01-21T01:16:41.271Z,28.50
2023-01-21T01:17:41.303Z,29.80
2023-01-21T01:18:41.337Z,28.80
2023-01-21T01:19:41.296Z,30.90
2023-01-21T01:20:41.262Z,33.00
2023-01-21T01:21:41.259Z,31.10
2023-01-21T01:22:41.244Z,29.30
2023-01-21T01:23:41.276Z,35.20
2023-01-21T01:24:41.219Z,31.30
2023-01-21T01:25:41.291Z,28.30
2023-01-21T01:26:42.227Z,29.30
2023-01-21T01:27:42.228Z,35.80
2023-01-21T01:28:41.265Z,35.10
2023-01-21T01:29:41.241Z,38.50
2023-01-21T01:30:41.306Z,38.00
2023-01-21T01:31:41.237Z,34.80
2023-01-21T01:32:41.179Z,33.50
2023-01-21T01:33:41.183Z,33.10
2023-01-21T01:34:41.239Z,33.10
2023-01-21T01:35:41.203Z,33.60
2023-01-21T01:36:41.259Z,33.80
2023-01-21T01:37:41.163Z,35.10
2023-01-21T01:38:41.150Z,34.70
2023-01-21T01:39:41.180Z,34.80
2023-01-21T01:40:41.148Z,35.30
2023-01-21T01:41:41.159Z,34.30
2023-01-21T01:42:41.137Z,34.50
2023-01-21T01:43:41.146Z,34.40
2023-01-21T01:44:41.177Z,34.50
2023-01-21T01:45:41.108Z,34.30
2023-01-21T01:46:41.154Z,35.40
2023-01-21T01:47:41.103Z,35.30
2023-01-21T01:48:41.121Z,35.40
2023-01-21T01:49:41.127Z,33.50
2023-01-21T01:50:41.098Z,35.00
2023-01-21T01:51:41.109Z,33.10
2023-01-21T01:52:41.090Z,33.40
2023-01-21T01:53:41.077Z,33.10
2023-01-21T01:54:41.081Z,34.10
2023-01-21T01:55:41.114Z,33.40
2023-01-21T01:56:41.074Z,33.90
2023-01-21T01:57:41.039Z,33.10
2023-01-21T01:58:41.034Z,33.80
2023-01-21T01:59:41.035Z,32.20
2023-01-21T02:00:41.036Z,31.90
2023-01-21T02:01:41.116Z,31.50
2023-01-21T02:02:41.094Z,32.30
2023-01-21T02:03:41.024Z,34.20
2023-01-21T02:04:41.078Z,32.00
2023-01-21T02:05:41.008Z,30.10
2023-01-21T02:06:41.026Z,31.70
2023-01-21T02:07:41.018Z,31.00
2023-01-21T02:08:40.985Z,30.90
2023-01-21T02:09:40.990Z,31.10
2023-01-21T02:10:41.033Z,30.60
2023-01-21T02:11:41.016Z,31.20
2023-01-21T02:12:40.979Z,30.20
2023-01-21T02:13:40.979Z,30.90
2023-01-21T02:14:40.998Z,32.60
2023-01-21T02:15:41.010Z,32.20
2023-01-21T02:16:40.970Z,32.00
2023-01-21T02:17:40.950Z,32.00
2023-01-21T02:18:40.942Z,32.60
2023-01-21T02:19:41.050Z,32.60
2023-01-21T02:20:40.941Z,31.20
2023-01-21T02:21:41.015Z,31.00
2023-01-21T02:22:40.961Z,31.80
2023-01-21T02:23:40.994Z,31.80
2023-01-21T02:24:40.939Z,31.70
2023-01-21T02:25:40.940Z,32.00
2023-01-21T02:26:40.931Z,32.40
2023-01-21T02:27:40.977Z,31.70
2023-01-21T02:28:40.947Z,30.40
2023-01-21T02:29:40.959Z,31.00
2023-01-21T02:30:40.968Z,30.60
2023-01-21T02:31:40.949Z,31.00
2023-01-21T02:32:40.847Z,31.00
2023-01-21T02:33:40.830Z,31.70
2023-01-21T02:34:40.875Z,31.60
2023-01-21T02:35:40.843Z,30.60
2023-01-21T02:36:40.853Z,30.80
2023-01-21T02:37:40.849Z,30.50
2023-01-21T02:38:41.023Z,30.90
2023-01-21T02:39:41.014Z,30.20
2023-01-21T02:40:40.886Z,30.80
2023-01-21T02:41:40.811Z,30.50
2023-01-21T02:42:40.818Z,30.80
2023-01-21T02:43:40.805Z,31.20
2023-01-21T02:44:40.804Z,31.30
2023-01-21T02:45:40.826Z,31.60
2023-01-21T02:46:40.873Z,30.80
2023-01-21T02:47:40.788Z,31.30
2023-01-21T02:48:40.763Z,32.00
2023-01-21T02:49:40.757Z,30.80
2023-01-21T02:50:40.779Z,30.10
2023-01-21T02:51:40.759Z,30.90
2023-01-21T02:52:40.806Z,29.40
2023-01-21T02:53:40.740Z,30.80
2023-01-21T02:54:40.785Z,30.80
2023-01-21T02:55:43.376Z,32.80
2023-01-21T02:56:40.750Z,32.70
2023-01-21T02:57:40.755Z,30.10
2023-01-21T02:58:40.714Z,30.80
2023-01-21T02:59:40.738Z,31.20
2023-01-21T03:00:40.727Z,29.60
2023-01-21T03:01:40.751Z,28.80
2023-01-21T03:02:40.725Z,28.70
2023-01-21T03:03:41.467Z,28.80
2023-01-21T03:04:41.693Z,29.20
2023-01-21T03:05:40.660Z,30.00
2023-01-21T03:06:40.666Z,30.80
2023-01-21T03:07:40.660Z,30.00
2023-01-21T03:08:40.690Z,30.40
2023-01-21T03:09:40.681Z,29.50
2023-01-21T03:10:40.652Z,29.20
2023-01-21T03:11:40.655Z,30.20
2023-01-21T03:12:40.638Z,30.30
2023-01-21T03:13:40.773Z,30.50
2023-01-21T03:14:40.652Z,30.70
2023-01-21T03:15:40.619Z,31.60
2023-01-21T03:16:40.650Z,31.30
2023-01-21T03:17:40.636Z,30.30
2023-01-21T03:18:40.617Z,30.10
2023-01-21T03:19:40.629Z,31.10
2023-01-21T03:20:40.635Z,29.50
2023-01-21T03:21:40.630Z,31.10
2023-01-21T03:22:40.590Z,31.30
2023-01-21T03:23:40.598Z,32.00
2023-01-21T03:24:40.582Z,32.50
2023-01-21T03:25:40.579Z,31.80
2023-01-21T03:26:40.550Z,33.20
2023-01-21T03:27:40.571Z,32.40
2023-01-21T03:28:40.601Z,32.20
2023-01-21T03:29:40.572Z,33.00
2023-01-21T03:30:40.547Z,29.90
2023-01-21T03:31:40.598Z,30.10
2023-01-21T03:32:40.541Z,31.70
2023-01-21T03:33:40.518Z,30.50
2023-01-21T03:34:40.490Z,31.80
2023-01-21T03:35:40.529Z,31.60
2023-01-21T03:36:40.547Z,31.70
2023-01-21T03:37:40.488Z,30.40
2023-01-21T03:38:40.515Z,32.50
2023-01-21T03:39:40.473Z,31.70
2023-01-21T03:40:40.495Z,32.40
2023-01-21T03:41:40.482Z,33.30
2023-01-21T03:42:40.459Z,32.70
2023-01-21T03:43:40.489Z,32.60
2023-01-21T03:44:40.481Z,33.50
2023-01-21T03:45:40.490Z,33.50
2023-01-21T03:46:40.556Z,32.70
2023-01-21T03:47:40.511Z,32.40
2023-01-21T03:48:40.651Z,34.60
2023-01-21T03:49:40.443Z,34.30
2023-01-21T03:50:40.441Z,33.70
2023-01-21T03:51:40.462Z,35.00
2023-01-21T03:52:40.406Z,35.20
2023-01-21T03:53:40.381Z,36.80
2023-01-21T03:54:40.406Z,36.10
2023-01-21T03:55:40.541Z,36.30
2023-01-21T03:56:40.450Z,36.20
2023-01-21T03:57:40.387Z,37.70
2023-01-21T03:58:40.486Z,36.40
2023-01-21T03:59:40.398Z,38.10
2023-01-21T04:00:40.390Z,37.20
2023-01-21T04:01:40.429Z,37.30
2023-01-21T04:02:40.382Z,35.30
2023-01-21T04:03:40.356Z,37.40
2023-01-21T04:04:40.372Z,35.60
2023-01-21T04:05:40.332Z,36.90
2023-01-21T04:06:40.373Z,34.00
2023-01-21T04:07:40.370Z,33.60
2023-01-21T04:08:40.342Z,34.10
2023-01-21T04:09:40.483Z,35.90
2023-01-21T04:10:40.328Z,34.20
2023-01-21T04:11:40.316Z,34.00
2023-01-21T04:12:40.324Z,33.20
2023-01-21T04:13:40.303Z,33.70
2023-01-21T04:14:40.359Z,33.40
2023-01-21T04:15:40.308Z,33.50
2023-01-21T04:16:40.334Z,33.00
2023-01-21T04:17:40.296Z,32.20
2023-01-21T04:18:40.298Z,31.80
2023-01-21T04:19:40.312Z,31.00
2023-01-21T04:20:40.323Z,31.80
2023-01-21T04:21:40.286Z,32.50
2023-01-21T04:22:40.245Z,32.30
2023-01-21T04:23:40.270Z,34.00
2023-01-21T04:24:40.255Z,33.10
2023-01-21T04:25:40.252Z,33.10
2023-01-21T04:26:40.244Z,34.10
2023-01-21T04:27:40.259Z,33.90
2023-01-21T04:28:40.235Z,33.00
2023-01-21T04:29:40.249Z,32.90
2023-01-21T04:30:40.386Z,32.40
2023-01-21T04:31:40.233Z,32.90
2023-01-21T04:32:40.220Z,34.20
2023-01-21T04:33:40.198Z,32.30
2023-01-21T04:34:40.166Z,32.50
2023-01-21T04:35:40.176Z,32.40
2023-01-21T04:36:40.271Z,33.20
2023-01-21T04:37:40.156Z,32.70
2023-01-21T04:38:40.174Z,32.40
2023-01-21T04:39:40.173Z,33.10
2023-01-21T04:40:40.172Z,34.10
2023-01-21T04:41:40.249Z,33.00
2023-01-21T04:42:40.157Z,34.40
2023-01-21T04:43:40.123Z,33.10
2023-01-21T04:44:40.119Z,33.10
2023-01-21T04:45:40.252Z,33.90
2023-01-21T04:46:40.115Z,34.00
2023-01-21T04:47:40.133Z,34.20
2023-01-21T04:48:40.190Z,33.60
2023-01-21T04:49:40.232Z,33.80
2023-01-21T04:50:40.124Z,32.90
2023-01-21T04:51:40.097Z,33.40
2023-01-21T04:52:40.134Z,32.30
2023-01-21T04:53:41.060Z,31.50
2023-01-21T04:54:40.082Z,32.40
2023-01-21T04:55:40.249Z,31.10
2023-01-21T04:56:40.168Z,32.40
2023-01-21T04:57:40.175Z,31.90
2023-01-21T04:58:40.045Z,31.80
2023-01-21T04:59:40.037Z,33.10
2023-01-21T05:00:40.061Z,33.50
2023-01-21T05:01:40.127Z,33.30
2023-01-21T05:02:40.078Z,34.00
2023-01-21T05:03:40.052Z,32.30
2023-01-21T05:04:39.999Z,32.70
2023-01-21T05:05:40.051Z,32.40
2023-01-21T05:06:40.011Z,33.30
2023-01-21T05:07:40.016Z,31.90
2023-01-21T05:08:40.150Z,31.60
2023-01-21T05:09:40.068Z,32.20
2023-01-21T05:10:40.029Z,31.50
2023-01-21T05:11:39.973Z,31.90
2023-01-21T05:12:39.971Z,32.90
2023-01-21T05:13:39.997Z,30.80
2023-01-21T05:14:40.062Z,31.90
2023-01-21T05:15:40.016Z,32.30
2023-01-21T05:16:39.987Z,31.60
2023-01-21T05:17:39.933Z,32.60
2023-01-21T05:18:39.929Z,32.90
2023-01-21T05:19:40.014Z,32.40
2023-01-21T05:20:40.011Z,30.60
2023-01-21T05:21:39.936Z,32.20
2023-01-21T05:22:39.944Z,33.80
2023-01-21T05:23:39.939Z,32.20
2023-01-21T05:24:39.944Z,33.30
2023-01-21T05:25:39.896Z,33.70
2023-01-21T05:26:39.937Z,33.70
2023-01-21T05:27:39.879Z,32.40
2023-01-21T05:28:39.979Z,33.00
2023-01-21T05:29:39.902Z,32.20
2023-01-21T05:30:41.319Z,32.40
2023-01-21T05:31:40.936Z,32.40
2023-01-21T05:32:39.899Z,32.40
2023-01-21T05:33:40.082Z,34.10
2023-01-21T05:34:39.849Z,33.20
2023-01-21T05:35:40.016Z,32.70
2023-01-21T05:36:39.861Z,33.80
2023-01-21T05:37:39.999Z,35.10
2023-01-21T05:38:39.819Z,32.60
2023-01-21T05:39:39.847Z,34.30
2023-01-21T05:40:39.866Z,32.60
2023-01-21T05:41:39.810Z,34.60
2023-01-21T05:42:39.907Z,33.00
2023-01-21T05:43:39.812Z,34.20
2023-01-21T05:44:39.830Z,33.80
2023-01-21T05:45:39.981Z,33.00
2023-01-21T05:46:39.795Z,34.30
2023-01-21T05:47:39.805Z,33.30
2023-01-21T05:48:39.789Z,32.50
2023-01-21T05:49:39.767Z,33.90
2023-01-21T05:50:39.821Z,32.70
2023-01-21T05:51:39.873Z,33.30
2023-01-21T05:52:39.788Z,31.90
2023-01-21T05:53:39.773Z,33.80
2023-01-21T05:54:49.254Z,33.80
2023-01-21T05:55:41.736Z,33.80
2023-01-21T05:56:39.713Z,32.60
2023-01-21T05:57:39.753Z,32.60
2023-01-21T05:58:39.812Z,33.60
2023-01-21T05:59:39.788Z,32.20
2023-01-21T06:00:39.729Z,33.50
2023-01-21T06:01:39.855Z,33.50
2023-01-21T06:02:39.894Z,33.10
2023-01-21T06:03:39.780Z,33.40
2023-01-21T06:04:43.331Z,33.10
2023-01-21T06:05:39.702Z,33.60
2023-01-21T06:06:39.696Z,33.10
2023-01-21T06:07:39.680Z,32.80
2023-01-21T06:08:39.771Z,32.80
2023-01-21T06:09:39.781Z,32.60
2023-01-21T06:10:39.649Z,32.20
2023-01-21T06:11:39.715Z,32.60
2023-01-21T06:12:39.678Z,31.90
2023-01-21T06:13:39.651Z,31.70
2023-01-21T06:14:39.638Z,32.20
2023-01-21T06:15:39.674Z,31.80
2023-01-21T06:16:39.647Z,32.00
2023-01-21T06:17:39.654Z,32.00
2023-01-21T06:18:39.635Z,31.90
2023-01-21T06:19:39.618Z,32.30
2023-01-21T06:20:39.597Z,32.20
2023-01-21T06:21:39.610Z,30.90
2023-01-21T06:22:39.638Z,32.00
2023-01-21T06:23:39.591Z,31.70
2023-01-21T06:24:39.680Z,32.10
2023-01-21T06:25:39.743Z,32.50
2023-01-21T06:26:39.685Z,32.60
2023-01-21T06:27:39.577Z,33.30
2023-01-21T06:28:39.540Z,33.80
2023-01-21T06:29:40.690Z,32.10
2023-01-21T06:30:39.669Z,33.60
2023-01-21T06:31:39.756Z,33.40
2023-01-21T06:32:39.567Z,33.30
2023-01-21T06:33:39.567Z,32.50
2023-01-21T06:34:39.601Z,34.30
2023-01-21T06:35:39.567Z,34.90
2023-01-21T06:36:39.622Z,33.70
2023-01-21T06:37:39.524Z,33.60
2023-01-21T06:38:40.670Z,31.90
2023-01-21T06:39:39.502Z,33.60
2023-01-21T06:40:39.528Z,33.60
2023-01-21T06:41:39.544Z,33.60
2023-01-21T06:42:39.515Z,32.30
2023-01-21T06:43:39.534Z,32.20
2023-01-21T06:44:39.562Z,32.80
2023-01-21T06:45:39.500Z,32.30
2023-01-21T06:46:43.388Z,31.80
2023-01-21T06:47:41.488Z,31.70
2023-01-21T06:48:39.480Z,28.50
2023-01-21T06:49:39.501Z,27.90
2023-01-21T06:50:39.642Z,27.10
2023-01-21T06:51:39.466Z,26.70
2023-01-21T06:52:39.467Z,27.90
2023-01-21T06:53:39.433Z,27.70
2023-01-21T06:54:39.431Z,26.80
2023-01-21T06:55:40.425Z,24.70
2023-01-21T06:56:39.475Z,25.80
2023-01-21T06:57:39.436Z,24.50
2023-01-21T06:58:39.423Z,24.10
2023-01-21T06:59:39.428Z,22.90
2023-01-21T07:00:39.408Z,23.30
2023-01-21T07:01:39.478Z,23.00
2023-01-21T07:02:39.542Z,24.20
2023-01-21T07:03:39.388Z,24.70
2023-01-21T07:04:39.418Z,24.60
2023-01-21T07:05:39.399Z,25.40
2023-01-21T07:06:39.370Z,26.50
2023-01-21T07:07:39.377Z,23.30
2023-01-21T07:08:39.406Z,23.30
2023-01-21T07:09:39.353Z,24.70
2023-01-21T07:10:39.392Z,24.00
2023-01-21T07:11:39.375Z,24.40
2023-01-21T07:12:39.330Z,22.90
2023-01-21T07:13:39.332Z,23.90
2023-01-21T07:14:39.341Z,23.50
2023-01-21T07:15:39.354Z,23.70
2023-01-21T07:16:39.344Z,24.10
2023-01-21T07:17:39.348Z,25.70
2023-01-21T07:18:39.349Z,24.90
2023-01-21T07:19:39.305Z,24.80
2023-01-21T07:20:40.766Z,25.20
2023-01-21T07:21:40.304Z,24.50
2023-01-21T07:22:39.277Z,25.60
2023-01-21T07:23:39.304Z,26.40
2023-01-21T07:24:39.269Z,25.70
2023-01-21T07:25:39.277Z,24.00
2023-01-21T07:26:39.241Z,25.40
2023-01-21T07:27:39.288Z,25.20
2023-01-21T07:28:39.265Z,25.20
2023-01-21T07:29:39.248Z,24.40
2023-01-21T07:30:39.323Z,24.80
2023-01-21T07:31:39.345Z,24.20
2023-01-21T07:32:39.212Z,24.30
2023-01-21T07:33:39.282Z,23.40
2023-01-21T07:34:39.235Z,24.10
2023-01-21T07:35:39.267Z,24.70
2023-01-21T07:36:39.236Z,24.00
2023-01-21T07:37:39.219Z,24.00
2023-01-21T07:38:39.193Z,25.60
2023-01-21T07:39:39.231Z,25.00
2023-01-21T07:40:39.211Z,25.20
2023-01-21T07:41:39.204Z,24.90
2023-01-21T07:42:39.191Z,26.00
2023-01-21T07:43:39.223Z,25.40
2023-01-21T07:44:39.217Z,25.40
2023-01-21T07:45:39.286Z,25.10
2023-01-21T07:46:39.249Z,24.80
2023-01-21T07:47:39.202Z,25.40
2023-01-21T07:48:39.127Z,26.00
2023-01-21T07:49:39.141Z,25.40
2023-01-21T07:50:39.163Z,27.00
2023-01-21T07:51:39.181Z,26.90
2023-01-21T07:52:39.128Z,26.80
2023-01-21T07:53:39.128Z,26.80
2023-01-21T07:54:39.126Z,26.20
2023-01-21T07:55:39.143Z,26.10
2023-01-21T07:56:39.152Z,25.60
2023-01-21T07:57:39.082Z,25.40
2023-01-21T07:58:39.191Z,24.00
2023-01-21T07:59:39.089Z,23.70
2023-01-21T08:00:39.144Z,25.20
2023-01-21T08:01:39.093Z,24.70
2023-01-21T08:02:39.163Z,24.40
2023-01-21T08:03:39.071Z,25.90
2023-01-21T08:04:39.088Z,26.00
2023-01-21T08:05:39.113Z,25.30
2023-01-21T08:06:39.075Z,25.30
2023-01-21T08:07:39.066Z,24.00
2023-01-21T08:08:39.067Z,24.00
2023-01-21T08:09:39.032Z,25.30
2023-01-21T08:10:39.018Z,25.40
2023-01-21T08:11:39.011Z,26.00
2023-01-21T08:12:38.990Z,25.00
2023-01-21T08:13:39.015Z,24.50
2023-01-21T08:14:39.076Z,24.60
2023-01-21T08:15:39.027Z,23.80
2023-01-21T08:16:39.062Z,23.80
2023-01-21T08:17:39.001Z,23.10
2023-01-21T08:18:39.017Z,23.90
2023-01-21T08:19:38.981Z,24.00
2023-01-21T08:20:38.965Z,24.20
2023-01-21T08:21:38.949Z,23.50
2023-01-21T08:22:38.965Z,23.30
2023-01-21T08:23:38.952Z,23.10
2023-01-21T08:24:38.988Z,24.40
2023-01-21T08:25:38.944Z,24.30
2023-01-21T08:26:38.954Z,22.60
2023-01-21T08:27:38.925Z,21.60
2023-01-21T08:28:38.940Z,22.00
2023-01-21T08:29:38.937Z,21.90
2023-01-21T08:30:38.954Z,23.30
2023-01-21T08:31:38.952Z,21.80
2023-01-21T08:32:38.892Z,22.50
2023-01-21T08:33:38.909Z,21.10
2023-01-21T08:34:38.889Z,20.40
2023-01-21T08:35:38.984Z,20.30
2023-01-21T08:36:38.917Z,20.90
2023-01-21T08:37:38.860Z,20.00
2023-01-21T08:38:38.850Z,22.60
2023-01-21T08:39:38.875Z,21.70
2023-01-21T08:40:38.857Z,21.50
2023-01-21T08:41:38.839Z,22.80
2023-01-21T08:42:38.875Z,22.10
2023-01-21T08:43:38.807Z,23.10
2023-01-21T08:44:38.833Z,20.20
2023-01-21T08:45:38.990Z,21.30
2023-01-21T08:46:38.801Z,21.20
2023-01-21T08:47:38.805Z,25.20
2023-01-21T08:48:38.794Z,23.60
2023-01-21T08:49:38.805Z,20.90
2023-01-21T08:50:38.774Z,20.50
2023-01-21T08:51:38.829Z,18.60
2023-01-21T08:52:38.868Z,19.80
2023-01-21T08:53:38.764Z,19.60
2023-01-21T08:54:38.749Z,20.00
2023-01-21T08:55:38.743Z,18.90
2023-01-21T08:56:38.795Z,18.30
2023-01-21T08:57:38.720Z,19.70
2023-01-21T08:58:38.770Z,19.60
2023-01-21T08:59:38.754Z,19.40
2023-01-21T09:00:38.783Z,19.40
2023-01-21T09:01:38.726Z,18.20
2023-01-21T09:02:38.690Z,20.10
2023-01-21T09:03:38.738Z,20.00
2023-01-21T09:04:38.723Z,20.10
2023-01-21T09:05:38.706Z,19.70
2023-01-21T09:06:38.687Z,17.40
2023-01-21T09:07:38.686Z,17.40
2023-01-21T09:08:38.708Z,16.80
2023-01-21T09:09:38.693Z,17.60
2023-01-21T09:10:38.676Z,19.10
2023-01-21T09:11:38.705Z,19.20
2023-01-21T09:12:38.663Z,20.30
2023-01-21T09:13:38.686Z,20.40
2023-01-21T09:14:38.653Z,18.50
2023-01-21T09:15:38.670Z,17.70
2023-01-21T09:16:38.690Z,16.70
2023-01-21T09:17:38.611Z,17.90
2023-01-21T09:18:38.656Z,19.50
2023-01-21T09:19:38.650Z,18.70
2023-01-21T09:20:38.628Z,17.00
2023-01-21T09:21:38.654Z,18.20
2023-01-21T09:22:38.612Z,19.10
2023-01-21T09:23:38.619Z,18.50
2023-01-21T09:24:38.631Z,19.90
2023-01-21T09:25:38.620Z,18.70
2023-01-21T09:26:39.595Z,19.40
2023-01-21T09:27:38.588Z,19.50
2023-01-21T09:28:38.600Z,18.80
2023-01-21T09:29:38.694Z,18.20
2023-01-21T09:30:38.600Z,17.30
2023-01-21T09:31:38.579Z,18.70
2023-01-21T09:32:38.545Z,19.10
2023-01-21T09:33:38.527Z,18.00
2023-01-21T09:34:38.550Z,17.30
2023-01-21T09:35:38.561Z,17.70
2023-01-21T09:36:38.568Z,16.40
2023-01-21T09:37:38.503Z,15.20
2023-01-21T09:38:38.532Z,16.10
2023-01-21T09:39:38.554Z,17.00
2023-01-21T09:40:38.511Z,16.80
2023-01-21T09:41:38.562Z,17.40
2023-01-21T09:42:38.505Z,16.30
2023-01-21T09:43:38.474Z,16.40
2023-01-21T09:44:38.507Z,15.20
2023-01-21T09:45:38.523Z,15.00
2023-01-21T09:46:38.513Z,16.20
2023-01-21T09:47:38.469Z,15.40
2023-01-21T09:48:38.488Z,15.60
2023-01-21T09:49:38.549Z,16.60
2023-01-21T09:50:38.440Z,15.70
2023-01-21T09:51:38.465Z,15.60
2023-01-21T09:52:38.497Z,16.20
2023-01-21T09:53:38.465Z,16.20
2023-01-21T09:54:38.429Z,15.50
2023-01-21T09:55:38.728Z,17.00
2023-01-21T09:56:38.413Z,17.30
2023-01-21T09:57:39.430Z,17.50
2023-01-21T09:58:38.444Z,17.50
2023-01-21T09:59:38.400Z,17.40
2023-01-21T10:00:38.454Z,17.80
2023-01-21T10:01:38.440Z,17.00
2023-01-21T10:02:38.371Z,17.70
2023-01-21T10:03:38.409Z,17.60
2023-01-21T10:04:38.467Z,17.20
2023-01-21T10:05:38.409Z,17.10
2023-01-21T10:06:38.374Z,17.10
2023-01-21T10:07:38.333Z,16.50
2023-01-21T10:08:38.375Z,16.30
2023-01-21T10:09:38.343Z,16.40
2023-01-21T10:10:38.371Z,17.10
2023-01-21T10:11:38.375Z,17.30
2023-01-21T10:12:38.331Z,17.90
2023-01-21T10:13:38.321Z,17.90
2023-01-21T10:14:38.344Z,18.10
2023-01-21T10:15:38.299Z,17.30
2023-01-21T10:16:38.374Z,16.80
2023-01-21T10:17:38.322Z,16.70
2023-01-21T10:18:38.280Z,16.30
2023-01-21T10:19:38.301Z,14.80
2023-01-21T10:20:38.319Z,14.80
2023-01-21T10:21:38.245Z,14.40
2023-01-21T10:22:38.289Z,14.80
2023-01-21T10:23:38.263Z,12.00
2023-01-21T10:24:38.238Z,12.40
2023-01-21T10:25:38.385Z,13.20
2023-01-21T10:26:38.317Z,12.40
2023-01-21T10:27:38.204Z,12.60
2023-01-21T10:28:38.234Z,13.10
2023-01-21T10:29:38.212Z,13.10
2023-01-21T10:30:38.324Z,13.20
2023-01-21T10:31:38.288Z,14.60
2023-01-21T10:32:38.226Z,14.80
2023-01-21T10:33:38.285Z,14.60
2023-01-21T10:34:38.210Z,14.80
2023-01-21T10:35:38.246Z,14.50
2023-01-21T10:36:38.195Z,14.20
2023-01-21T10:37:38.165Z,14.20
2023-01-21T10:38:38.199Z,14.70
2023-01-21T10:39:38.247Z,13.90
2023-01-21T10:40:38.322Z,12.90
2023-01-21T10:41:38.246Z,11.70
2023-01-21T10:42:38.135Z,11.80
2023-01-21T10:43:38.143Z,11.80
2023-01-21T10:44:38.137Z,12.70
2023-01-21T10:45:38.146Z,12.80
2023-01-21T10:46:38.169Z,12.40
2023-01-21T10:47:38.129Z,12.40
2023-01-21T10:48:38.109Z,12.70
2023-01-21T10:49:38.134Z,11.60
2023-01-21T10:50:38.091Z,12.70
2023-01-21T10:51:38.133Z,12.40
2023-01-21T10:52:38.070Z,12.90
2023-01-21T10:53:38.078Z,12.70
2023-01-21T10:54:38.068Z,12.30
2023-01-21T10:55:38.067Z,12.70
2023-01-21T10:56:38.052Z,13.20
2023-01-21T10:57:38.069Z,12.80
2023-01-21T10:58:38.048Z,12.40
2023-01-21T10:59:38.479Z,14.00
2023-01-21T11:00:38.086Z,14.60
2023-01-21T11:01:38.075Z,13.90
2023-01-21T11:02:38.056Z,13.50
2023-01-21T11:03:38.016Z,14.20
2023-01-21T11:04:38.015Z,13.80
2023-01-21T11:05:37.983Z,13.20
2023-01-21T11:06:37.997Z,14.40
2023-01-21T11:07:38.052Z,14.70
2023-01-21T11:08:38.011Z,14.90
2023-01-21T11:09:38.212Z,14.50
2023-01-21T11:10:38.021Z,13.40
2023-01-21T11:11:37.974Z,13.20
2023-01-21T11:12:37.963Z,14.40
2023-01-21T11:13:37.982Z,13.80
2023-01-21T11:14:37.973Z,13.70
2023-01-21T11:15:38.010Z,13.60
2023-01-21T11:16:37.980Z,13.40
2023-01-21T11:17:37.910Z,13.40
2023-01-21T11:18:37.956Z,13.00
2023-01-21T11:19:37.909Z,12.40
2023-01-21T11:20:37.929Z,14.00
2023-01-21T11:21:38.076Z,12.80
2023-01-21T11:22:37.924Z,12.20
2023-01-21T11:23:37.908Z,11.60
2023-01-21T11:24:37.911Z,11.90
2023-01-21T11:25:38.019Z,12.00
2023-01-21T11:26:37.877Z,11.00
2023-01-21T11:27:38.896Z,11.50
2023-01-21T11:28:37.877Z,10.80
2023-01-21T11:29:37.882Z,10.80
2023-01-21T11:30:50.275Z,10.70
2023-01-21T11:31:39.894Z,9.50
2023-01-21T11:32:37.859Z,10.40
2023-01-21T11:33:37.869Z,10.10
2023-01-21T11:34:37.852Z,9.90
2023-01-21T11:35:37.858Z,10.00
2023-01-21T11:36:37.831Z,9.20
2023-01-21T11:37:37.842Z,8.80
2023-01-21T11:38:37.840Z,8.60
2023-01-21T11:39:37.810Z,9.20
2023-01-21T11:40:37.817Z,9.00
2023-01-21T11:41:37.797Z,8.30
2023-01-21T11:42:37.790Z,8.40
2023-01-21T11:43:38.854Z,8.20
2023-01-21T11:44:37.790Z,8.40
2023-01-21T11:45:37.831Z,9.20
2023-01-21T11:46:37.779Z,8.70
2023-01-21T11:47:37.791Z,8.50
2023-01-21T11:48:37.768Z,9.10
2023-01-21T11:49:37.751Z,8.40
2023-01-21T11:50:37.772Z,8.80
2023-01-21T11:51:37.735Z,7.70
2023-01-21T11:52:37.773Z,7.60
2023-01-21T11:53:37.763Z,8.70
2023-01-21T11:54:37.714Z,8.60
2023-01-21T11:55:37.715Z,8.50
2023-01-21T11:56:37.728Z,8.20
2023-01-21T11:57:37.775Z,7.90
2023-01-21T11:58:37.733Z,8.50
2023-01-21T11:59:37.678Z,8.40
2023-01-21T12:00:37.728Z,10.30
2023-01-21T12:01:37.728Z,10.40
2023-01-21T12:02:37.728Z,11.10
2023-01-21T12:03:37.762Z,9.90
2023-01-21T12:04:37.683Z,11.40
2023-01-21T12:05:37.657Z,15.20
2023-01-21T12:06:37.691Z,14.50
2023-01-21T12:07:37.696Z,14.80
2023-01-21T12:08:37.710Z,17.40
2023-01-21T12:09:37.714Z,18.00
2023-01-21T12:10:37.661Z,18.00
2023-01-21T12:11:37.627Z,23.60
2023-01-21T12:12:37.650Z,19.80
2023-01-21T12:13:37.613Z,26.80
2023-01-21T12:14:37.609Z,17.70
2023-01-21T12:15:37.652Z,18.70
2023-01-21T12:16:37.621Z,21.10
2023-01-21T12:17:40.012Z,27.30
2023-01-21T12:18:38.593Z,20.70
2023-01-21T12:19:37.619Z,16.00
2023-01-21T12:20:37.586Z,13.50
2023-01-21T12:21:37.569Z,13.30
2023-01-21T12:22:37.585Z,14.00
2023-01-21T12:23:37.581Z,12.30
2023-01-21T12:24:37.571Z,12.20
2023-01-21T12:25:37.573Z,14.00
2023-01-21T12:26:37.552Z,13.90
2023-01-21T12:27:37.625Z,12.30
2023-01-21T12:28:37.573Z,13.20
2023-01-21T12:29:37.580Z,11.70
2023-01-21T12:30:37.556Z,12.60
2023-01-21T12:31:37.627Z,11.80
2023-01-21T12:32:37.583Z,11.30
2023-01-21T12:33:37.509Z,11.70
2023-01-21T12:34:37.571Z,11.10
2023-01-21T12:35:37.482Z,11.30
2023-01-21T12:36:37.537Z,11.30
2023-01-21T12:37:37.515Z,11.10
2023-01-21T12:38:37.473Z,10.10
2023-01-21T12:39:37.482Z,10.80
2023-01-21T12:40:37.493Z,10.80
2023-01-21T12:41:37.580Z,11.30
2023-01-21T12:42:37.554Z,10.80
2023-01-21T12:43:37.484Z,10.50
2023-01-21T12:44:37.493Z,10.00
2023-01-21T12:45:37.452Z,11.40
2023-01-21T12:46:37.526Z,11.60
2023-01-21T12:47:37.418Z,12.20
2023-01-21T12:48:37.404Z,13.00
2023-01-21T12:49:37.396Z,15.80
2023-01-21T12:50:37.416Z,13.30
2023-01-21T12:51:37.469Z,13.10
2023-01-21T12:52:37.450Z,12.20
2023-01-21T12:53:37.407Z,15.40